createdAt,value
2018-03-03T00:02:03.962Z,15.20
2018-03-03T00:04:32.240Z,15.97
2018-03-03T00:07:00.817Z,14.60
2018-03-03T00:09:30.345Z,15.07
2018-03-03T00:11:58.639Z,15.90
2018-03-03T00:14:26.959Z,15.63
2018-03-03T00:16:56.720Z,16.83
2018-03-03T00:19:25.015Z,16.03
2018-03-03T00:21:53.348Z,13.67
2018-03-03T00:24:21.644Z,15.90
2018-03-03T00:26:49.949Z,14.70
2018-03-03T00:29:18.256Z,15.47
2018-03-03T00:31:46.532Z,15.93
2018-03-03T00:34:15.663Z,14.53
2018-03-03T00:36:43.943Z,17.03
2018-03-03T00:39:13.256Z,13.97
2018-03-03T00:41:41.555Z,15.73
2018-03-03T00:44:09.831Z,15.10
2018-03-03T00:46:38.780Z,14.53
2018-03-03T00:49:07.096Z,15.50
2018-03-03T00:51:36.300Z,14.20
2018-03-03T00:54:05.211Z,15.00
2018-03-03T00:56:33.493Z,17.50
2018-03-03T00:59:01.818Z,16.10
2018-03-03T01:01:30.236Z,17.00
2018-03-03T01:03:59.425Z,13.70
2018-03-03T01:06:27.724Z,17.33
2018-03-03T01:08:56.045Z,16.00
2018-03-03T01:11:24.337Z,16.00
2018-03-03T01:13:52.664Z,15.37
2018-03-03T01:16:20.948Z,16.80
2018-03-03T01:18:49.247Z,17.13
2018-03-03T01:21:17.757Z,15.80
2018-03-03T01:23:46.050Z,15.97
2018-03-03T01:26:14.324Z,17.07
2018-03-03T01:28:42.711Z,16.20
2018-03-03T01:31:11.080Z,16.37
2018-03-03T01:33:39.459Z,15.90
2018-03-03T01:36:07.865Z,17.80
2018-03-03T01:38:36.444Z,17.17
2018-03-03T01:41:04.901Z,16.83
2018-03-03T01:43:34.045Z,17.73
2018-03-03T01:46:02.320Z,16.20
2018-03-03T01:48:31.076Z,17.53
2018-03-03T01:50:59.361Z,16.70
2018-03-03T01:53:28.405Z,15.53
2018-03-03T01:55:57.449Z,15.63
2018-03-03T01:58:26.188Z,17.17
2018-03-03T02:00:55.248Z,18.17
2018-03-03T02:03:24.010Z,14.40
2018-03-03T02:05:52.339Z,16.57
2018-03-03T02:08:21.454Z,16.80
2018-03-03T02:10:50.528Z,17.53
2018-03-03T02:13:19.411Z,16.20
2018-03-03T02:15:47.688Z,14.27
2018-03-03T02:18:16.408Z,17.03
2018-03-03T02:20:45.549Z,15.63
2018-03-03T02:23:13.848Z,17.30
2018-03-03T02:25:42.504Z,16.70
2018-03-03T02:28:10.783Z,15.90
2018-03-03T02:30:39.500Z,17.80
2018-03-03T02:33:07.850Z,16.10
2018-03-03T02:35:36.755Z,17.73
2018-03-03T02:38:05.553Z,18.10
2018-03-03T02:40:34.513Z,15.60
2018-03-03T02:43:03.357Z,18.67
2018-03-03T02:45:31.650Z,15.80
2018-03-03T02:48:00.887Z,17.23
2018-03-03T02:50:29.187Z,16.70
2018-03-03T02:52:57.516Z,15.77
2018-03-03T02:55:26.620Z,17.53
2018-03-03T02:57:54.916Z,17.43
2018-03-03T03:00:23.236Z,15.67
2018-03-03T03:02:51.613Z,14.03
2018-03-03T03:05:20.249Z,16.17
2018-03-03T03:07:49.265Z,16.57
2018-03-03T03:10:17.843Z,16.20
2018-03-03T03:12:46.752Z,17.53
2018-03-03T03:15:15.038Z,17.30
2018-03-03T03:17:43.691Z,16.67
2018-03-03T03:20:11.980Z,17.53
2018-03-03T03:22:40.374Z,16.20
2018-03-03T03:25:09.575Z,19.03
2018-03-03T03:27:37.866Z,17.60
2018-03-03T03:30:06.264Z,16.53
2018-03-03T03:32:34.568Z,16.73
2018-03-03T03:35:03.832Z,14.93
2018-03-03T03:37:33.292Z,15.80
2018-03-03T03:40:01.574Z,15.17
2018-03-03T03:42:29.855Z,18.43
2018-03-03T03:44:58.259Z,15.40
2018-03-03T03:47:26.544Z,16.13
2018-03-03T03:49:54.844Z,16.87
2018-03-03T03:52:23.276Z,14.57
2018-03-03T03:54:52.755Z,15.37
2018-03-03T03:57:21.828Z,17.97
2018-03-03T03:59:50.246Z,16.50
2018-03-03T04:02:18.544Z,16.77
2018-03-03T04:04:46.846Z,16.13
2018-03-03T04:07:15.500Z,16.70
2018-03-03T04:09:44.123Z,17.90
2018-03-03T04:12:13.145Z,15.60
2018-03-03T04:14:42.232Z,17.63
2018-03-03T04:17:11.277Z,16.43
2018-03-03T04:19:39.584Z,16.50
2018-03-03T04:22:08.676Z,16.03
2018-03-03T04:24:36.950Z,17.20
2018-03-03T04:27:05.252Z,16.10
2018-03-03T04:29:34.308Z,15.37
2018-03-03T04:32:02.582Z,17.40
2018-03-03T04:34:30.956Z,19.40
2018-03-03T04:36:59.312Z,16.47
2018-03-03T04:39:27.603Z,17.07
2018-03-03T04:41:56.469Z,17.57
2018-03-03T04:44:25.553Z,19.50
2018-03-03T04:46:53.827Z,19.07
2018-03-03T04:49:22.716Z,16.60
2018-03-03T04:51:51.026Z,16.57
2018-03-03T04:54:19.323Z,18.07
2018-03-03T04:56:47.707Z,16.27
2018-03-03T04:59:21.383Z,19.13
2018-03-03T05:01:51.370Z,16.97
2018-03-03T05:04:25.228Z,17.77
2018-03-03T05:06:59.136Z,16.57
2018-03-03T05:09:27.732Z,16.53
2018-03-03T05:11:56.135Z,18.57
2018-03-03T05:14:30.421Z,16.40
2018-03-03T05:17:00.194Z,20.40
2018-03-03T05:22:39.142Z,16.60
2018-03-03T05:25:14.744Z,16.60
2018-03-03T05:31:13.176Z,18.70
2018-03-03T05:33:46.964Z,18.97
2018-03-03T05:36:20.771Z,16.97
2018-03-03T05:42:07.208Z,16.93
2018-03-03T05:47:55.428Z,15.10
2018-03-03T05:50:29.899Z,18.10
2018-03-03T05:52:58.197Z,18.27
2018-03-03T05:59:00.346Z,17.33
2018-03-03T06:01:40.407Z,17.53
2018-03-03T06:04:14.229Z,19.67
2018-03-03T06:06:47.971Z,16.27
2018-03-03T06:09:18.827Z,18.10
2018-03-03T06:11:46.778Z,16.13
2018-03-03T06:14:15.861Z,16.43
2018-03-03T06:16:44.916Z,18.13
2018-03-03T06:19:13.399Z,18.13
2018-03-03T06:21:42.519Z,17.67
2018-03-03T06:24:11.393Z,16.60
2018-03-03T06:26:40.293Z,17.07
2018-03-03T06:29:08.627Z,17.43
2018-03-03T06:31:36.924Z,17.93
2018-03-03T06:34:06.745Z,18.90
2018-03-03T06:36:35.224Z,17.87
2018-03-03T06:39:03.527Z,19.47
2018-03-03T06:41:31.825Z,16.63
2018-03-03T06:44:01.056Z,18.63
2018-03-03T06:46:30.109Z,17.97
2018-03-03T06:48:58.419Z,20.07
2018-03-03T06:51:27.830Z,17.23
2018-03-03T06:53:56.868Z,17.67
2018-03-03T06:56:25.419Z,18.97
2018-03-03T06:58:54.501Z,19.23
2018-03-03T07:01:23.584Z,17.67
2018-03-03T07:03:51.929Z,16.90
2018-03-03T07:06:20.487Z,20.07
2018-03-03T07:08:49.732Z,18.73
2018-03-03T07:11:18.520Z,19.50
2018-03-03T07:13:46.806Z,19.10
2018-03-03T07:16:15.155Z,20.80
2018-03-03T07:18:43.468Z,17.20
2018-03-03T07:21:11.779Z,19.97
2018-03-03T07:23:40.851Z,19.27
2018-03-03T07:26:09.993Z,19.87
2018-03-03T07:28:39.011Z,19.20
2018-03-03T07:31:07.331Z,18.97
2018-03-03T07:33:36.367Z,19.93
2018-03-03T07:36:06.113Z,20.83
2018-03-03T07:38:34.912Z,19.47
2018-03-03T07:41:03.187Z,19.37
2018-03-03T07:43:31.680Z,18.80
2018-03-03T07:46:01.600Z,18.13
2018-03-03T07:48:30.723Z,16.53
2018-03-03T07:50:59.780Z,17.67
2018-03-03T07:53:28.061Z,18.90
2018-03-03T07:55:56.329Z,16.73
2018-03-03T07:58:42.603Z,18.73
2018-03-03T08:01:11.309Z,16.57
2018-03-03T08:03:39.807Z,16.77
2018-03-03T08:06:10.055Z,18.37
2018-03-03T08:08:39.104Z,16.63
2018-03-03T08:11:08.076Z,18.77
2018-03-03T08:13:36.425Z,18.00
2018-03-03T08:16:05.809Z,16.87
2018-03-03T08:18:34.080Z,19.00
2018-03-03T08:21:02.390Z,19.43
2018-03-03T08:23:31.424Z,18.20
2018-03-03T08:25:59.752Z,17.00
2018-03-03T08:28:28.885Z,17.77
2018-03-03T08:30:57.179Z,15.27
2018-03-03T08:33:26.283Z,17.47
2018-03-03T08:35:55.047Z,17.70
2018-03-03T08:38:23.331Z,17.90
2018-03-03T08:40:51.648Z,18.70
2018-03-03T08:43:20.040Z,17.90
2018-03-03T08:45:49.856Z,18.27
2018-03-03T08:48:19.708Z,16.83
2018-03-03T08:50:48.099Z,17.93
2018-03-03T08:53:16.382Z,17.77
2018-03-03T08:55:46.320Z,16.90
2018-03-03T08:58:15.284Z,17.13
2018-03-03T09:00:43.656Z,16.73
2018-03-03T09:03:11.938Z,18.40
2018-03-03T09:05:40.223Z,17.33
2018-03-03T09:08:09.115Z,17.50
2018-03-03T09:10:37.695Z,18.47
2018-03-03T09:13:05.972Z,19.47
2018-03-03T09:15:34.269Z,18.70
2018-03-03T09:18:02.724Z,16.87
2018-03-03T09:20:31.023Z,17.27
2018-03-03T09:22:59.311Z,17.70
2018-03-03T09:25:28.391Z,18.83
2018-03-03T09:27:56.669Z,18.23
2018-03-03T09:30:24.948Z,17.63
2018-03-03T09:32:54.423Z,17.40
2018-03-03T09:35:22.865Z,16.20
2018-03-03T09:37:51.420Z,19.60
2018-03-03T09:40:19.917Z,15.90
2018-03-03T09:42:48.217Z,17.73
2018-03-03T09:45:16.493Z,17.83
2018-03-03T09:47:44.822Z,17.00
2018-03-03T09:50:13.100Z,17.60
2018-03-03T09:52:41.510Z,18.23
2018-03-03T09:55:09.871Z,17.33
2018-03-03T09:57:38.198Z,17.03
2018-03-03T10:00:06.487Z,16.63
2018-03-03T10:02:35.611Z,16.30
2018-03-03T10:05:03.880Z,18.70
2018-03-03T10:07:32.162Z,16.67
2018-03-03T10:10:00.559Z,17.40
2018-03-03T10:12:29.763Z,18.33
2018-03-03T10:14:59.199Z,16.33
2018-03-03T10:17:27.780Z,15.87
2018-03-03T10:19:56.068Z,17.10
2018-03-03T10:22:24.372Z,14.93
2018-03-03T10:24:52.649Z,16.97
2018-03-03T10:27:21.709Z,15.70
2018-03-03T10:29:50.503Z,16.27
2018-03-03T10:32:19.044Z,17.53
2018-03-03T10:34:47.357Z,15.10
2018-03-03T10:37:15.639Z,16.13
2018-03-03T10:39:44.922Z,14.70
2018-03-03T10:42:13.859Z,14.30
2018-03-03T10:44:42.901Z,16.90
2018-03-03T10:47:12.012Z,14.70
2018-03-03T10:49:40.423Z,16.23
2018-03-03T10:52:08.759Z,14.57
2018-03-03T10:54:37.129Z,15.00
2018-03-03T10:57:05.429Z,12.67
2018-03-03T10:59:33.740Z,14.73
2018-03-03T11:02:02.887Z,14.50
2018-03-03T11:04:31.599Z,16.67
2018-03-03T11:06:59.984Z,15.23
2018-03-03T11:09:28.345Z,13.00
2018-03-03T11:11:56.641Z,12.30
2018-03-03T11:14:24.911Z,12.57
2018-03-03T11:16:53.292Z,14.43
2018-03-03T11:19:22.276Z,12.77
2018-03-03T11:21:50.556Z,13.30
2018-03-03T11:24:18.843Z,13.17
2018-03-03T11:26:47.156Z,12.47
2018-03-03T11:29:16.828Z,12.17
2018-03-03T11:31:45.123Z,12.23
2018-03-03T11:34:13.432Z,12.30
2018-03-03T11:36:42.564Z,12.13
2018-03-03T11:39:11.148Z,14.87
2018-03-03T11:41:39.778Z,12.00
2018-03-03T11:44:08.072Z,11.93
2018-03-03T11:46:37.442Z,13.40
2018-03-03T11:49:05.822Z,11.90
2018-03-03T11:51:34.092Z,11.87
2018-03-03T11:54:02.407Z,11.47
2018-03-03T11:56:31.503Z,13.37
2018-03-03T11:59:00.613Z,11.30
2018-03-03T12:01:28.898Z,12.97
2018-03-03T12:03:58.463Z,12.53
2018-03-03T12:06:27.340Z,13.03
2018-03-03T12:08:56.029Z,14.20
2018-03-03T12:11:24.864Z,11.23
2018-03-03T12:13:53.151Z,13.30
2018-03-03T12:16:21.440Z,13.80
2018-03-03T12:18:49.720Z,11.63
2018-03-03T12:21:19.689Z,12.67
2018-03-03T12:23:48.046Z,13.23
2018-03-03T12:26:16.358Z,12.17
2018-03-03T12:28:44.945Z,11.17
2018-03-03T12:31:14.943Z,11.23
2018-03-03T12:33:43.218Z,13.20
2018-03-03T12:36:11.680Z,12.33
2018-03-03T12:38:40.256Z,13.03
2018-03-03T12:41:09.077Z,12.83
2018-03-03T12:43:37.539Z,13.17
2018-03-03T12:46:06.552Z,11.60
2018-03-03T12:48:36.372Z,13.87
2018-03-03T12:51:04.664Z,12.43
2018-03-03T12:53:33.725Z,11.63
2018-03-03T12:56:02.299Z,12.40
2018-03-03T12:58:30.668Z,11.33
2018-03-03T13:00:58.959Z,11.37
2018-03-03T13:03:27.240Z,11.00
2018-03-03T13:05:55.813Z,10.70
2018-03-03T13:08:24.076Z,11.17
2018-03-03T13:10:52.482Z,12.30
2018-03-03T13:13:21.051Z,11.93
2018-03-03T13:15:49.323Z,11.40
2018-03-03T13:18:18.991Z,12.43
2018-03-03T13:20:48.085Z,12.30
2018-03-03T13:23:17.131Z,12.70
2018-03-03T13:25:46.366Z,12.80
2018-03-03T13:28:14.668Z,12.17
2018-03-03T13:30:43.712Z,11.10
2018-03-03T13:33:12.195Z,13.07
2018-03-03T13:35:40.589Z,14.20
2018-03-03T13:38:08.825Z,13.00
2018-03-03T13:40:37.112Z,13.13
2018-03-03T13:43:05.505Z,13.63
2018-03-03T13:45:33.767Z,14.03
2018-03-03T13:48:02.168Z,14.43
2018-03-03T13:50:30.524Z,13.57
2018-03-03T13:52:58.795Z,12.40
2018-03-03T13:55:27.063Z,12.30
2018-03-03T13:57:55.891Z,12.77
2018-03-03T14:00:24.472Z,14.20
2018-03-03T14:02:52.740Z,13.90
2018-03-03T14:05:21.533Z,13.67
2018-03-03T14:07:49.825Z,13.60
2018-03-03T14:10:18.091Z,13.73
2018-03-03T14:12:46.411Z,14.40
2018-03-03T14:15:14.701Z,14.03
2018-03-03T14:17:43.895Z,14.63
2018-03-03T14:20:13.141Z,12.70
2018-03-03T14:22:42.345Z,14.63
2018-03-03T14:25:10.711Z,13.90
2018-03-03T14:27:39.003Z,13.53
2018-03-03T14:30:08.754Z,14.57
2018-03-03T14:32:37.389Z,16.10
2018-03-03T14:35:05.693Z,14.07
2018-03-03T14:37:33.980Z,14.67
2018-03-03T14:40:03.185Z,14.43
2018-03-03T14:42:31.716Z,14.00
2018-03-03T14:45:01.591Z,15.57
2018-03-03T14:47:29.943Z,14.30
2018-03-03T14:49:58.340Z,15.47
2018-03-03T14:52:26.611Z,14.87
2018-03-03T14:54:54.963Z,14.67
2018-03-03T14:57:23.237Z,15.50
2018-03-03T14:59:51.835Z,13.47
2018-03-03T15:02:20.112Z,13.53
2018-03-03T15:04:48.480Z,13.70
2018-03-03T15:07:16.869Z,14.33
2018-03-03T15:09:45.160Z,12.50
2018-03-03T15:12:13.467Z,13.10
2018-03-03T15:14:41.792Z,13.27
2018-03-03T15:17:10.148Z,12.73
2018-03-03T15:19:39.212Z,13.00
2018-03-03T15:22:07.489Z,11.30
2018-03-03T15:24:36.452Z,14.10
2018-03-03T15:27:05.719Z,12.10
2018-03-03T15:29:34.874Z,11.83
2018-03-03T15:32:03.573Z,13.33
2018-03-03T15:34:31.923Z,12.70
2018-03-03T15:37:00.233Z,13.50
2018-03-03T15:39:29.096Z,14.13
2018-03-03T15:41:58.145Z,12.97
2018-03-03T15:44:27.193Z,11.80
2018-03-03T15:46:55.478Z,13.07
2018-03-03T15:49:23.792Z,13.30
2018-03-03T15:51:52.952Z,14.07
2018-03-03T15:54:21.268Z,14.17
2018-03-03T15:56:50.333Z,13.27
2018-03-03T15:59:19.201Z,13.77
2018-03-03T16:01:47.584Z,12.27
2018-03-03T16:04:15.893Z,13.70
2018-03-03T16:06:44.172Z,14.47
2018-03-03T16:09:12.629Z,13.97
2018-03-03T16:11:40.925Z,14.30
2018-03-03T16:14:09.637Z,13.03
2018-03-03T16:16:38.766Z,14.07
2018-03-03T16:19:07.511Z,13.50
2018-03-03T16:21:35.832Z,13.27
2018-03-03T16:24:04.488Z,14.30
2018-03-03T16:26:33.607Z,13.40
2018-03-03T16:29:01.898Z,13.70
2018-03-03T16:31:31.788Z,13.10
2018-03-03T16:34:00.877Z,14.20
2018-03-03T16:36:29.920Z,13.90
2018-03-03T16:38:58.981Z,13.13
2018-03-03T16:41:27.596Z,13.27
2018-03-03T16:43:55.896Z,14.70
2018-03-03T16:46:24.839Z,13.83
2018-03-03T16:48:53.197Z,13.73
2018-03-03T16:51:21.460Z,13.97
2018-03-03T16:53:49.741Z,13.57
2018-03-03T16:56:18.049Z,14.63
2018-03-03T16:58:47.812Z,13.87
2018-03-03T17:01:16.102Z,13.20
2018-03-03T17:03:44.472Z,14.67
2018-03-03T17:06:13.331Z,13.37
2018-03-03T17:08:42.479Z,13.37
2018-03-03T17:11:10.783Z,14.37
2018-03-03T17:13:39.836Z,13.60
2018-03-03T17:16:08.639Z,13.40
2018-03-03T17:18:36.979Z,13.93
2018-03-03T17:21:05.269Z,15.03
2018-03-03T17:23:33.593Z,14.93
2018-03-03T17:26:02.778Z,14.90
2018-03-03T17:28:31.077Z,15.77
2018-03-03T17:31:00.236Z,14.10
2018-03-03T17:33:29.255Z,14.90
2018-03-03T17:35:57.547Z,13.00
2018-03-03T17:38:26.627Z,16.17
2018-03-03T17:40:54.976Z,14.20
2018-03-03T17:43:23.272Z,14.10
2018-03-03T17:45:51.604Z,14.20
2018-03-03T17:48:21.064Z,16.23
2018-03-03T17:50:49.385Z,15.07
2018-03-03T17:53:17.691Z,15.50
2018-03-03T17:55:45.976Z,13.80
2018-03-03T17:58:14.873Z,16.50
2018-03-03T18:00:43.151Z,14.83
2018-03-03T18:03:11.514Z,13.80
2018-03-03T18:05:39.917Z,14.00
2018-03-03T18:08:08.679Z,14.77
2018-03-03T18:10:36.986Z,15.20
2018-03-03T18:13:07.076Z,15.90
2018-03-03T18:15:35.357Z,15.60
2018-03-03T18:18:03.958Z,16.00
2018-03-03T18:20:32.665Z,13.50
2018-03-03T18:23:00.993Z,13.80
2018-03-03T18:25:29.321Z,16.90
2018-03-03T18:27:58.378Z,14.73
2018-03-03T18:30:28.146Z,16.33
2018-03-03T18:32:56.492Z,15.60
2018-03-03T18:35:24.766Z,17.17
2018-03-03T18:37:53.047Z,15.10
2018-03-03T18:40:21.380Z,14.67
2018-03-03T18:42:49.697Z,19.20
2018-03-03T18:45:18.103Z,15.43
2018-03-03T18:47:46.712Z,18.40
2018-03-03T18:50:15.867Z,16.07
2018-03-03T18:52:44.886Z,16.20
2018-03-03T18:55:14.686Z,16.57
2018-03-03T18:57:42.956Z,16.27
2018-03-03T19:00:11.262Z,17.53
2018-03-03T19:02:39.561Z,19.10
2018-03-03T19:05:07.852Z,18.60
2018-03-03T19:07:36.160Z,17.87
2018-03-03T19:10:04.459Z,19.07
2018-03-03T19:12:32.773Z,18.40
2018-03-03T19:15:01.124Z,19.17
2018-03-03T19:17:30.213Z,17.30
2018-03-03T19:19:58.504Z,18.50
2018-03-03T19:22:26.829Z,17.87
2018-03-03T19:24:55.108Z,18.80
2018-03-03T19:27:23.399Z,19.60
2018-03-03T19:29:51.700Z,19.37
2018-03-03T19:32:20.500Z,18.50
2018-03-03T19:34:49.546Z,19.00
2018-03-03T19:37:19.281Z,18.30
2018-03-03T19:39:47.865Z,18.37
2018-03-03T19:42:16.173Z,18.90
2018-03-03T19:44:45.120Z,19.13
2018-03-03T19:47:14.390Z,19.50
2018-03-03T19:49:42.650Z,18.73
2018-03-03T19:52:11.272Z,20.37
2018-03-03T19:54:40.002Z,16.30
2018-03-03T19:57:08.601Z,18.93
2018-03-03T19:59:36.897Z,20.17
2018-03-03T20:02:05.953Z,18.43
2018-03-03T20:04:34.250Z,17.60
2018-03-03T20:07:02.601Z,19.20
2018-03-03T20:09:30.893Z,20.20
2018-03-03T20:11:59.551Z,19.57
2018-03-03T20:14:27.932Z,20.50
2018-03-03T20:16:56.556Z,20.10
2018-03-03T20:19:24.827Z,20.23
2018-03-03T20:21:53.187Z,18.90
2018-03-03T20:24:21.492Z,19.27
2018-03-03T20:26:49.800Z,21.40
2018-03-03T20:29:19.065Z,20.33
2018-03-03T20:31:47.740Z,19.30
2018-03-03T20:34:16.025Z,21.80
2018-03-03T20:36:44.382Z,19.13
2018-03-03T20:39:12.756Z,17.13
2018-03-03T20:41:42.406Z,20.03
2018-03-03T20:44:10.760Z,19.27
2018-03-03T20:46:39.057Z,18.20
2018-03-03T20:49:07.339Z,20.53
2018-03-03T20:51:37.562Z,20.67
2018-03-03T20:54:05.861Z,21.20
2018-03-03T20:56:35.660Z,19.93
2018-03-03T20:59:04.790Z,19.53
2018-03-03T21:01:33.061Z,19.47
2018-03-03T21:04:02.571Z,21.10
2018-03-03T21:06:31.621Z,21.00
2018-03-03T21:08:59.912Z,22.57
2018-03-03T21:14:34.760Z,19.03
2018-03-03T21:17:03.076Z,20.90
2018-03-03T21:19:31.518Z,20.23
2018-03-03T21:21:59.857Z,22.73
2018-03-03T21:24:28.960Z,21.77
2018-03-03T21:26:57.248Z,23.00
2018-03-03T21:29:25.528Z,18.40
2018-03-03T21:31:54.088Z,18.27
2018-03-03T21:34:22.380Z,18.97
2018-03-03T21:36:50.671Z,19.10
2018-03-03T21:39:19.490Z,21.13
2018-03-03T21:41:47.952Z,17.87
2018-03-03T21:44:17.101Z,20.90
2018-03-03T21:46:45.421Z,19.60
2018-03-03T21:49:13.721Z,18.60
2018-03-03T21:51:42.004Z,18.80
2018-03-03T21:54:11.077Z,21.33
2018-03-03T21:56:40.017Z,19.90
2018-03-03T21:59:09.069Z,20.87
2018-03-03T22:01:37.391Z,20.17
2018-03-03T22:04:06.720Z,18.00
2018-03-03T22:06:35.001Z,19.67
2018-03-03T22:09:03.288Z,19.37
2018-03-03T22:11:31.629Z,16.93
2018-03-03T22:14:00.701Z,16.80
2018-03-03T22:16:29.040Z,19.73
2018-03-03T22:18:57.349Z,18.43
2018-03-03T22:21:25.648Z,19.13
2018-03-03T22:23:54.848Z,18.77
2018-03-03T22:26:25.001Z,17.40
2018-03-03T22:28:54.033Z,18.73
2018-03-03T22:31:22.561Z,19.80
2018-03-03T22:33:51.604Z,17.40
2018-03-03T22:36:20.212Z,19.13
2018-03-03T22:38:48.502Z,14.93
2018-03-03T22:41:16.777Z,17.00
2018-03-03T22:43:45.070Z,16.63
2018-03-03T22:46:14.112Z,15.70
2018-03-03T22:48:42.760Z,17.60
2018-03-03T22:51:12.126Z,17.90
2018-03-03T22:53:40.404Z,17.03
2018-03-03T22:56:08.709Z,16.93
2018-03-03T22:58:37.760Z,18.03
2018-03-03T23:01:06.124Z,18.30
2018-03-03T23:03:34.440Z,17.87
2018-03-03T23:06:02.781Z,16.60
2018-03-03T23:08:31.873Z,16.23
2018-03-03T23:11:01.717Z,14.70
2018-03-03T23:13:29.989Z,17.13
2018-03-03T23:15:58.344Z,16.77
2018-03-03T23:18:26.628Z,17.90
2018-03-03T23:20:55.424Z,17.70
2018-03-03T23:23:24.138Z,16.83
2018-03-03T23:25:53.052Z,17.27
2018-03-03T23:28:22.096Z,15.50
2018-03-03T23:30:50.688Z,19.10
2018-03-03T23:33:18.977Z,17.63
2018-03-03T23:35:47.284Z,15.70
2018-03-03T23:38:17.813Z,19.40
2018-03-03T23:40:46.189Z,18.30
2018-03-03T23:43:14.477Z,16.97
2018-03-03T23:45:43.564Z,16.97
2018-03-03T23:48:11.894Z,16.27
2018-03-03T23:50:40.917Z,17.30
2018-03-03T23:53:09.364Z,17.20
2018-03-03T23:55:37.688Z,17.80
2018-03-03T23:58:06.777Z,18.73
